createdAt,value
2023-01-17T00:02:08.077Z,17.70
2023-01-17T00:04:53.900Z,20.17
2023-01-17T00:07:41.060Z,20.67
2023-01-17T00:10:26.026Z,17.88
2023-01-17T00:12:55.933Z,23.30
2023-01-17T00:15:24.173Z,21.55
2023-01-17T00:17:52.845Z,20.42
2023-01-17T00:20:44.302Z,21.02
2023-01-17T00:23:34.033Z,19.07
2023-01-17T00:26:04.456Z,18.75
2023-01-17T00:28:40.044Z,21.00
2023-01-17T00:31:09.627Z,18.52
2023-01-17T00:33:37.275Z,20.25
2023-01-17T00:36:05.439Z,19.25
2023-01-17T00:38:36.444Z,22.02
2023-01-17T00:41:05.737Z,23.10
2023-01-17T00:43:52.166Z,21.98
2023-01-17T00:46:38.702Z,22.02
2023-01-17T00:49:25.172Z,22.05
2023-01-17T00:52:10.918Z,23.42
2023-01-17T00:54:56.949Z,21.27
2023-01-17T00:57:42.592Z,19.88
2023-01-17T01:00:29.067Z,23.90
2023-01-17T01:03:14.713Z,20.92
2023-01-17T01:06:01.090Z,20.92
2023-01-17T01:08:48.309Z,23.20
2023-01-17T01:11:37.404Z,23.30
2023-01-17T01:14:25.094Z,23.85
2023-01-17T01:17:11.421Z,24.20
2023-01-17T01:19:57.329Z,26.00
2023-01-17T01:22:43.186Z,22.55
2023-01-17T01:25:28.670Z,22.52
2023-01-17T01:28:31.035Z,22.33
2023-01-17T01:31:20.358Z,25.23
2023-01-17T01:33:48.093Z,25.83
2023-01-17T01:36:15.757Z,25.95
2023-01-17T01:38:43.370Z,24.55
2023-01-17T01:41:10.529Z,29.30
2023-01-17T01:43:49.730Z,25.92
2023-01-17T01:46:25.229Z,26.83
2023-01-17T01:49:02.670Z,26.73
2023-01-17T01:51:37.160Z,29.08
2023-01-17T01:54:30.220Z,28.85
2023-01-17T01:57:02.640Z,29.52
2023-01-17T01:59:31.012Z,29.38
2023-01-17T02:01:58.424Z,28.42
2023-01-17T02:04:27.319Z,28.35
2023-01-17T02:07:03.775Z,33.33
2023-01-17T02:09:31.282Z,27.45
2023-01-17T02:11:58.704Z,26.80
2023-01-17T02:14:26.202Z,29.35
2023-01-17T02:17:17.040Z,24.20
2023-01-17T02:19:52.921Z,28.38
2023-01-17T02:22:58.056Z,31.20
2023-01-17T02:25:46.719Z,27.52
2023-01-17T02:28:29.050Z,28.83
2023-01-17T02:33:45.153Z,33.07
2023-01-17T02:36:22.422Z,30.17
2023-01-17T02:38:57.801Z,29.33
2023-01-17T02:41:32.787Z,32.20
2023-01-17T02:44:02.050Z,27.70
2023-01-17T02:46:29.492Z,27.70
2023-01-17T02:48:57.806Z,35.17
2023-01-17T02:52:00.130Z,32.90
2023-01-17T02:54:53.441Z,35.43
2023-01-17T02:57:37.011Z,32.50
2023-01-17T03:00:29.324Z,30.83
2023-01-17T03:03:11.939Z,31.33
2023-01-17T03:06:11.481Z,26.75
2023-01-17T03:08:44.765Z,28.60
2023-01-17T03:11:13.248Z,31.25
2023-01-17T03:13:41.433Z,28.23
2023-01-17T03:16:14.993Z,35.38
2023-01-17T03:18:42.599Z,33.30
2023-01-17T03:21:09.796Z,31.67
2023-01-17T03:23:37.673Z,36.33
2023-01-17T03:26:05.023Z,31.25
2023-01-17T03:28:32.648Z,30.25
2023-01-17T03:30:59.863Z,26.52
2023-01-17T03:33:27.285Z,30.02
2023-01-17T03:35:57.991Z,26.15
2023-01-17T03:38:26.516Z,36.00
2023-01-17T03:40:54.041Z,28.00
2023-01-17T03:43:21.599Z,26.65
2023-01-17T03:45:54.384Z,28.30
2023-01-17T03:48:22.110Z,27.92
2023-01-17T03:50:52.061Z,32.45
2023-01-17T03:53:19.550Z,34.40
2023-01-17T03:55:47.042Z,30.70
2023-01-17T03:58:14.749Z,24.52
2023-01-17T04:00:42.366Z,27.13
2023-01-17T04:03:09.892Z,23.65
2023-01-17T04:05:37.110Z,24.65
2023-01-17T04:08:06.650Z,23.25
2023-01-17T04:10:34.172Z,26.08
2023-01-17T04:13:02.692Z,27.77
2023-01-17T04:15:30.258Z,24.83
2023-01-17T04:17:58.075Z,20.38
2023-01-17T04:20:37.113Z,28.88
2023-01-17T04:23:05.279Z,22.70
2023-01-17T04:25:32.824Z,27.73
2023-01-17T04:28:01.681Z,22.38
2023-01-17T04:30:29.703Z,21.75
2023-01-17T04:32:57.403Z,24.08
2023-01-17T04:35:25.026Z,22.38
2023-01-17T04:37:52.798Z,24.65
2023-01-17T04:40:20.252Z,22.15
2023-01-17T04:42:48.396Z,21.65
2023-01-17T04:45:15.928Z,23.42
2023-01-17T04:47:43.404Z,20.48
2023-01-17T04:50:11.270Z,18.90
2023-01-17T04:52:38.776Z,22.17
2023-01-17T04:55:06.752Z,26.23
2023-01-17T04:57:34.223Z,21.67
2023-01-17T05:00:01.409Z,22.42
2023-01-17T05:02:28.868Z,21.23
2023-01-17T05:04:56.074Z,17.48
2023-01-17T05:07:23.458Z,19.52
2023-01-17T05:09:50.569Z,22.30
2023-01-17T05:12:17.959Z,19.67
2023-01-17T05:14:45.137Z,25.05
2023-01-17T05:17:12.578Z,24.75
2023-01-17T05:19:39.749Z,20.85
2023-01-17T05:22:15.127Z,19.85
2023-01-17T05:24:47.500Z,19.27
2023-01-17T05:29:42.729Z,16.23
2023-01-17T05:32:10.245Z,19.30
2023-01-17T05:34:37.379Z,19.60
2023-01-17T05:37:04.964Z,16.48
2023-01-17T05:39:32.108Z,15.07
2023-01-17T05:41:59.927Z,20.15
2023-01-17T05:44:27.749Z,17.60
2023-01-17T05:46:56.120Z,15.82
2023-01-17T05:49:23.427Z,16.55
2023-01-17T05:51:52.924Z,16.83
2023-01-17T05:54:21.836Z,16.05
2023-01-17T05:56:49.244Z,17.63
2023-01-17T05:59:20.560Z,13.63
2023-01-17T06:01:54.317Z,13.55
2023-01-17T06:04:21.565Z,15.10
2023-01-17T06:06:49.030Z,15.48
2023-01-17T06:09:16.193Z,12.80
2023-01-17T06:11:43.665Z,12.73
2023-01-17T06:14:10.882Z,10.75
2023-01-17T06:16:38.226Z,12.40
2023-01-17T06:19:05.327Z,15.20
2023-01-17T06:21:32.714Z,15.20
2023-01-17T06:23:59.785Z,10.57
2023-01-17T06:26:27.333Z,10.75
2023-01-17T06:28:54.464Z,13.80
2023-01-17T06:31:21.983Z,13.00
2023-01-17T06:33:49.174Z,11.38
2023-01-17T06:36:16.528Z,10.68
2023-01-17T06:38:43.705Z,10.52
2023-01-17T06:41:11.117Z,10.23
2023-01-17T06:43:38.270Z,12.30
2023-01-17T06:46:07.095Z,11.70
2023-01-17T06:48:34.230Z,11.30
2023-01-17T06:51:01.602Z,8.93
2023-01-17T06:53:28.746Z,11.90
2023-01-17T06:56:00.205Z,12.65
2023-01-17T06:58:27.543Z,9.35
2023-01-17T07:00:55.122Z,14.27
2023-01-17T07:03:25.134Z,12.35
2023-01-17T07:05:53.150Z,13.70
2023-01-17T07:08:20.645Z,12.70
2023-01-17T07:10:48.934Z,13.27
2023-01-17T07:13:16.152Z,12.50
2023-01-17T07:15:43.652Z,13.93
2023-01-17T07:18:10.939Z,13.80
2023-01-17T07:20:38.578Z,15.57
2023-01-17T07:23:06.856Z,22.80
2023-01-17T07:25:34.307Z,17.95
2023-01-17T07:28:01.470Z,17.25
2023-01-17T07:30:29.194Z,19.90
2023-01-17T07:32:56.488Z,11.30
2023-01-17T07:35:26.779Z,20.17
2023-01-17T07:37:54.673Z,14.35
2023-01-17T07:40:22.925Z,21.33
2023-01-17T07:42:50.184Z,14.63
2023-01-17T07:45:18.073Z,15.57
2023-01-17T07:47:45.236Z,13.75
2023-01-17T07:50:13.637Z,10.60
2023-01-17T07:52:40.962Z,14.30
2023-01-17T07:55:09.134Z,16.08
2023-01-17T07:57:36.338Z,11.75
2023-01-17T08:00:05.368Z,12.88
2023-01-17T08:02:39.570Z,14.68
2023-01-17T08:05:07.463Z,16.10
2023-01-17T08:07:34.656Z,13.18
2023-01-17T08:10:02.255Z,13.32
2023-01-17T08:12:29.635Z,15.18
2023-01-17T08:14:57.165Z,12.85
2023-01-17T08:17:24.305Z,11.82
2023-01-17T08:19:53.095Z,33.08
2023-01-17T08:22:20.242Z,23.92
2023-01-17T08:24:47.640Z,14.80
2023-01-17T08:27:15.217Z,13.88
2023-01-17T08:29:46.923Z,11.25
2023-01-17T08:32:14.763Z,12.10
2023-01-17T08:34:42.595Z,10.48
2023-01-17T08:37:09.716Z,8.65
2023-01-17T08:39:37.107Z,10.55
2023-01-17T08:42:04.608Z,14.63
2023-01-17T08:44:32.032Z,11.35
2023-01-17T08:46:59.274Z,23.63
2023-01-17T08:49:29.127Z,63.83
2023-01-17T08:51:56.286Z,18.60
2023-01-17T08:54:23.753Z,11.23
2023-01-17T08:56:52.865Z,18.42
2023-01-17T08:59:20.334Z,11.23
2023-01-17T09:01:47.569Z,11.27
2023-01-17T09:04:15.795Z,27.98
2023-01-17T09:06:45.477Z,29.73
2023-01-17T09:09:13.734Z,15.68
2023-01-17T09:11:41.044Z,34.95
2023-01-17T09:14:08.665Z,20.75
2023-01-17T09:16:35.924Z,22.92
2023-01-17T09:19:03.347Z,16.55
2023-01-17T09:21:30.664Z,13.57
2023-01-17T09:23:58.086Z,16.20
2023-01-17T09:26:28.189Z,12.82
2023-01-17T09:28:56.288Z,10.35
2023-01-17T09:31:24.535Z,15.07
2023-01-17T09:33:52.877Z,14.40
2023-01-17T09:36:20.664Z,9.77
2023-01-17T09:38:48.315Z,11.90
2023-01-17T09:41:27.406Z,17.23
2023-01-17T09:44:07.658Z,10.85
2023-01-17T09:46:42.890Z,14.00
2023-01-17T09:49:28.015Z,21.08
2023-01-17T09:51:55.284Z,32.63
2023-01-17T09:54:25.410Z,16.05
2023-01-17T09:57:11.652Z,11.43
2023-01-17T10:00:02.627Z,16.05
2023-01-17T10:02:59.434Z,13.07
2023-01-17T10:05:36.655Z,14.10
2023-01-17T10:08:25.045Z,16.67
2023-01-17T10:11:13.886Z,11.52
2023-01-17T10:13:47.050Z,16.92
2023-01-17T10:16:41.530Z,17.38
2023-01-17T10:19:08.643Z,12.45
2023-01-17T10:21:49.568Z,10.80
2023-01-17T10:24:40.709Z,80.03
2023-01-17T10:27:25.399Z,397.35
2023-01-17T10:29:54.198Z,284.88
2023-01-17T10:32:25.291Z,248.10
2023-01-17T10:34:53.426Z,58.88
2023-01-17T10:37:41.833Z,118.97
2023-01-17T10:40:22.034Z,126.35
2023-01-17T10:43:14.719Z,30.13
2023-01-17T10:45:49.003Z,205.45
2023-01-17T10:48:22.490Z,78.20
2023-01-17T10:51:02.394Z,82.03
2023-01-17T10:53:35.548Z,85.18
2023-01-17T10:56:03.202Z,141.05
2023-01-17T10:58:31.845Z,69.20
2023-01-17T11:01:10.884Z,75.07
2023-01-17T11:03:39.899Z,69.85
2023-01-17T11:06:57.351Z,43.50
2023-01-17T11:09:56.381Z,34.95
2023-01-17T11:12:23.496Z,88.38
2023-01-17T11:15:17.837Z,43.88
2023-01-17T11:17:52.914Z,68.75
2023-01-17T11:20:38.411Z,35.17
2023-01-17T11:23:18.536Z,48.08
2023-01-17T11:26:24.007Z,28.65
2023-01-17T11:28:54.550Z,59.78
2023-01-17T11:31:26.629Z,14.50
2023-01-17T11:34:26.576Z,73.43
2023-01-17T11:37:18.361Z,25.45
2023-01-17T11:39:48.189Z,20.05
2023-01-17T11:42:36.561Z,17.27
2023-01-17T11:45:32.918Z,16.23
2023-01-17T11:48:09.293Z,14.75
2023-01-17T11:50:55.272Z,8.77
2023-01-17T11:53:26.548Z,9.68
2023-01-17T11:55:58.545Z,9.95
2023-01-17T12:01:41.436Z,10.68
2023-01-17T12:04:19.408Z,19.33
2023-01-17T12:07:07.471Z,8.75
2023-01-17T12:09:50.551Z,10.38
2023-01-17T12:12:48.052Z,7.28
2023-01-17T12:15:23.192Z,7.65
2023-01-17T12:18:17.024Z,12.25
2023-01-17T12:20:51.419Z,17.80
2023-01-17T12:23:40.507Z,16.27
2023-01-17T12:26:32.331Z,13.95
2023-01-17T12:29:15.015Z,15.33
2023-01-17T12:31:59.150Z,16.85
2023-01-17T12:34:43.844Z,15.55
2023-01-17T12:37:37.569Z,9.48
2023-01-17T12:40:15.408Z,7.88
2023-01-17T12:43:01.621Z,15.40
2023-01-17T12:45:38.517Z,9.35
2023-01-17T12:48:17.078Z,9.18
2023-01-17T12:51:05.702Z,22.75
2023-01-17T12:53:42.624Z,10.35
2023-01-17T12:56:24.315Z,12.57
2023-01-17T12:58:58.906Z,12.98
2023-01-17T13:01:32.161Z,8.60
2023-01-17T13:04:41.991Z,7.43
2023-01-17T13:07:27.557Z,17.83
2023-01-17T13:10:25.000Z,14.18
2023-01-17T13:12:55.752Z,17.60
2023-01-17T13:15:27.262Z,9.95
2023-01-17T13:18:02.913Z,9.18
2023-01-17T13:20:56.629Z,9.55
2023-01-17T13:23:33.343Z,13.38
2023-01-17T13:26:03.205Z,16.17
2023-01-17T13:28:52.275Z,9.65
2023-01-17T13:31:35.547Z,13.15
2023-01-17T13:34:11.603Z,9.43
2023-01-17T13:36:52.449Z,14.88
2023-01-17T13:39:43.525Z,10.20
2023-01-17T13:42:22.835Z,24.95
2023-01-17T13:44:50.575Z,23.65
2023-01-17T13:47:18.039Z,19.33
2023-01-17T13:49:49.287Z,13.68
2023-01-17T13:52:19.622Z,11.60
2023-01-17T13:54:58.014Z,9.68
2023-01-17T13:57:28.533Z,12.48
2023-01-17T13:59:58.669Z,9.13
2023-01-17T14:02:31.903Z,11.13
2023-01-17T14:05:10.650Z,9.27
2023-01-17T14:07:49.625Z,8.82
2023-01-17T14:10:40.817Z,15.02
2023-01-17T14:13:37.607Z,9.05
2023-01-17T14:16:31.400Z,9.32
2023-01-17T14:18:58.945Z,9.80
2023-01-17T14:21:35.641Z,8.93
2023-01-17T14:24:18.299Z,8.45
2023-01-17T14:26:58.910Z,9.52
2023-01-17T14:29:50.784Z,12.30
2023-01-17T14:32:21.782Z,9.38
2023-01-17T14:34:52.053Z,11.43
2023-01-17T14:37:40.482Z,8.55
2023-01-17T14:40:20.137Z,9.20
2023-01-17T14:42:51.987Z,7.47
2023-01-17T14:45:26.831Z,10.93
2023-01-17T14:47:54.323Z,8.35
2023-01-17T14:50:27.714Z,7.97
2023-01-17T14:53:12.806Z,11.05
2023-01-17T14:55:50.562Z,11.80
2023-01-17T14:58:35.070Z,15.55
2023-01-17T15:01:20.506Z,12.48
2023-01-17T15:03:49.196Z,20.77
2023-01-17T15:06:23.463Z,45.45
2023-01-17T15:08:54.696Z,25.27
2023-01-17T15:11:26.069Z,15.82
2023-01-17T15:13:57.518Z,15.05
2023-01-17T15:16:26.166Z,38.17
2023-01-17T15:18:55.095Z,46.28
2023-01-17T15:21:26.402Z,282.55
2023-01-17T15:23:57.209Z,248.63
2023-01-17T15:26:27.954Z,117.65
2023-01-17T15:29:05.377Z,55.30
2023-01-17T15:31:44.895Z,11.95
2023-01-17T15:34:38.475Z,36.67
2023-01-17T15:37:21.410Z,37.63
2023-01-17T15:42:26.222Z,24.35
2023-01-17T15:45:00.823Z,12.50
2023-01-17T15:47:40.132Z,13.70
2023-01-17T15:50:28.710Z,14.45
2023-01-17T15:53:28.407Z,12.32
2023-01-17T15:55:57.747Z,15.25
2023-01-17T15:58:28.689Z,15.43
2023-01-17T16:00:56.973Z,16.33
2023-01-17T16:03:30.437Z,24.42
2023-01-17T16:06:01.173Z,18.92
2023-01-17T16:08:39.852Z,20.80
2023-01-17T16:11:10.728Z,16.10
2023-01-17T16:13:39.119Z,18.77
2023-01-17T16:16:22.897Z,20.80
2023-01-17T16:18:57.747Z,21.05
2023-01-17T16:21:28.435Z,16.77
2023-01-17T16:23:56.517Z,23.55
2023-01-17T16:26:24.399Z,19.85
2023-01-17T16:28:52.064Z,27.75
2023-01-17T16:31:19.607Z,29.52
2023-01-17T16:33:49.949Z,42.55
2023-01-17T16:36:18.018Z,38.65
2023-01-17T16:38:45.806Z,33.83
2023-01-17T16:41:13.059Z,33.45
2023-01-17T16:43:40.568Z,35.97
2023-01-17T16:46:11.227Z,32.83
2023-01-17T16:48:38.790Z,27.23
2023-01-17T16:51:08.034Z,29.90
2023-01-17T16:53:35.814Z,29.67
2023-01-17T16:56:12.391Z,25.88
2023-01-17T16:58:41.030Z,26.88
2023-01-17T17:01:15.395Z,30.63
2023-01-17T17:03:43.957Z,31.25
2023-01-17T17:06:11.961Z,27.35
2023-01-17T17:08:40.020Z,30.92
2023-01-17T17:11:14.231Z,31.25
2023-01-17T17:13:46.926Z,35.17
2023-01-17T17:16:20.143Z,33.17
2023-01-17T17:18:55.015Z,31.60
2023-01-17T17:21:22.120Z,34.88
2023-01-17T17:23:56.689Z,29.50
2023-01-17T17:26:34.104Z,33.65
2023-01-17T17:29:02.409Z,32.90
2023-01-17T17:31:29.748Z,27.83
2023-01-17T17:34:01.410Z,33.60
2023-01-17T17:36:29.593Z,29.80
2023-01-17T17:38:57.913Z,29.25
2023-01-17T17:41:27.858Z,24.55
2023-01-17T17:43:55.793Z,28.98
2023-01-17T17:46:25.086Z,27.50
2023-01-17T17:48:52.960Z,31.00
2023-01-17T17:51:25.978Z,29.33
2023-01-17T17:53:54.837Z,30.85
2023-01-17T17:56:23.499Z,33.13
2023-01-17T17:58:50.949Z,25.13
2023-01-17T18:01:18.204Z,23.60
2023-01-17T18:03:45.694Z,31.40
2023-01-17T18:06:13.342Z,33.30
2023-01-17T18:08:40.811Z,36.38
2023-01-17T18:11:14.928Z,34.83
2023-01-17T18:13:42.970Z,41.20
2023-01-17T18:16:12.476Z,39.83
2023-01-17T18:18:43.313Z,33.50
2023-01-17T18:21:14.208Z,50.85
2023-01-17T18:23:44.210Z,46.25
2023-01-17T18:26:20.109Z,43.63
2023-01-17T18:28:48.037Z,40.90
2023-01-17T18:31:15.399Z,57.15
2023-01-17T18:33:42.874Z,54.92
2023-01-17T18:36:12.449Z,83.20
2023-01-17T18:38:49.291Z,96.72
2023-01-17T18:41:22.666Z,70.25
2023-01-17T18:43:50.129Z,68.65
2023-01-17T18:46:18.678Z,65.68
2023-01-17T18:48:46.479Z,94.15
2023-01-17T18:51:18.266Z,59.80
2023-01-17T18:53:46.836Z,49.58
2023-01-17T18:56:17.898Z,44.78
2023-01-17T18:58:47.309Z,54.10
2023-01-17T19:01:16.155Z,49.15
2023-01-17T19:03:47.697Z,41.72
2023-01-17T19:06:23.560Z,52.85
2023-01-17T19:08:53.826Z,54.20
2023-01-17T19:11:22.574Z,52.78
2023-01-17T19:13:50.957Z,84.82
2023-01-17T19:16:32.931Z,77.95
2023-01-17T19:19:06.878Z,86.43
2023-01-17T19:21:34.395Z,58.80
2023-01-17T19:24:02.131Z,54.85
2023-01-17T19:26:30.040Z,51.80
2023-01-17T19:29:03.685Z,50.33
2023-01-17T19:31:32.829Z,56.28
2023-01-17T19:34:00.480Z,56.40
2023-01-17T19:36:33.518Z,49.67
2023-01-17T19:39:06.191Z,53.38
2023-01-17T19:41:36.235Z,56.10
2023-01-17T19:44:07.215Z,62.45
2023-01-17T19:46:35.533Z,65.22
2023-01-17T19:49:04.291Z,58.35
2023-01-17T19:51:31.505Z,53.25
2023-01-17T19:54:01.780Z,57.88
2023-01-17T19:56:29.655Z,55.75
2023-01-17T19:59:00.868Z,60.47
2023-01-17T20:01:33.606Z,56.95
2023-01-17T20:04:02.382Z,62.65
2023-01-17T20:06:32.826Z,58.28
2023-01-17T20:09:00.372Z,59.50
2023-01-17T20:11:28.813Z,60.67
2023-01-17T20:13:58.396Z,67.25
2023-01-17T20:16:28.793Z,63.22
2023-01-17T20:19:00.176Z,94.82
2023-01-17T20:21:29.561Z,156.27
2023-01-17T20:23:59.086Z,272.95
2023-01-17T20:26:34.462Z,226.38
2023-01-17T20:29:06.790Z,222.48
2023-01-17T20:31:38.086Z,219.10
2023-01-17T20:34:07.275Z,211.82
2023-01-17T20:36:34.717Z,158.00
2023-01-17T20:39:05.096Z,149.77
2023-01-17T20:41:35.505Z,241.10
2023-01-17T20:44:05.751Z,201.55
2023-01-17T20:46:37.906Z,189.63
2023-01-17T20:49:13.331Z,196.30
2023-01-17T20:51:41.065Z,235.13
2023-01-17T20:54:13.880Z,184.13
2023-01-17T20:59:12.276Z,134.02
2023-01-17T21:01:39.538Z,157.52
2023-01-17T21:04:25.946Z,152.48
2023-01-17T21:06:53.619Z,131.68
2023-01-17T21:09:22.026Z,154.80
2023-01-17T21:11:49.433Z,126.40
2023-01-17T21:14:16.905Z,168.77
2023-01-17T21:16:44.683Z,83.32
2023-01-17T21:19:14.956Z,88.75
2023-01-17T21:21:42.458Z,96.50
2023-01-17T21:24:10.195Z,481.08
2023-01-17T21:26:38.964Z,243.93
2023-01-17T21:29:07.126Z,146.85
2023-01-17T21:31:35.675Z,125.22
2023-01-17T21:34:05.710Z,105.03
2023-01-17T21:36:36.404Z,101.53
2023-01-17T21:39:06.863Z,65.38
2023-01-17T21:41:37.156Z,79.88
2023-01-17T21:44:08.644Z,85.18
2023-01-17T21:46:40.705Z,141.97
2023-01-17T21:49:12.986Z,81.82
2023-01-17T21:52:03.793Z,81.45
2023-01-17T21:54:50.651Z,99.40
2023-01-17T21:57:39.365Z,129.27
2023-01-17T22:00:10.459Z,141.43
2023-01-17T22:02:47.087Z,132.98
2023-01-17T22:05:16.750Z,175.52
2023-01-17T22:08:04.526Z,130.43
2023-01-17T22:10:32.574Z,86.63
2023-01-17T22:12:59.952Z,80.75
2023-01-17T22:15:27.496Z,82.53
2023-01-17T22:17:55.323Z,82.80
2023-01-17T22:20:22.991Z,85.93
2023-01-17T22:22:50.078Z,88.95
2023-01-17T22:25:17.506Z,88.22
2023-01-17T22:27:44.664Z,172.63
2023-01-17T22:30:13.084Z,371.73
2023-01-17T22:32:40.628Z,138.90
2023-01-17T22:35:08.386Z,98.43
2023-01-17T22:37:35.817Z,90.25
2023-01-17T22:40:04.963Z,82.25
2023-01-17T22:42:35.159Z,90.22
2023-01-17T22:45:02.600Z,85.32
2023-01-17T22:47:30.115Z,79.53
2023-01-17T22:49:57.564Z,90.05
2023-01-17T22:52:25.215Z,80.00
2023-01-17T22:54:52.788Z,76.75
2023-01-17T22:57:19.949Z,71.30
2023-01-17T22:59:47.636Z,73.53
2023-01-17T23:02:16.497Z,70.03
2023-01-17T23:04:44.700Z,71.28
2023-01-17T23:07:11.876Z,73.20
2023-01-17T23:09:39.272Z,67.53
2023-01-17T23:12:06.906Z,76.18
2023-01-17T23:14:54.638Z,65.90
2023-01-17T23:17:42.084Z,71.82
2023-01-17T23:20:10.853Z,73.97
2023-01-17T23:22:38.628Z,72.05
2023-01-17T23:25:11.511Z,64.85
2023-01-17T23:28:01.471Z,67.95
2023-01-17T23:30:34.404Z,61.90
2023-01-17T23:33:06.971Z,78.95
2023-01-17T23:35:41.304Z,70.47
2023-01-17T23:38:33.964Z,66.50
2023-01-17T23:41:24.336Z,64.70
2023-01-17T23:43:55.868Z,87.47
2023-01-17T23:46:25.212Z,145.77
2023-01-17T23:48:52.670Z,96.70
2023-01-17T23:51:20.212Z,77.25
2023-01-17T23:53:47.557Z,71.38
2023-01-17T23:56:18.963Z,71.72
2023-01-17T23:58:46.306Z,54.75
